sensor_id;sensor_type;location;lat;lon;timestamp;temperature;humidity
20735;DHT22;10528;52.124;5.196;2023-04-03T00:01:12;4.90;99.90
20735;DHT22;10528;52.124;5.196;2023-04-03T00:03:39;4.80;99.90
20735;DHT22;10528;52.124;5.196;2023-04-03T00:06:08;4.80;99.90
20735;DHT22;10528;52.124;5.196;2023-04-03T00:08:38;4.70;99.90
20735;DHT22;10528;52.124;5.196;2023-04-03T00:11:07;4.70;99.90
20735;DHT22;10528;52.124;5.196;2023-04-03T00:13:35;4.70;99.90
20735;DHT22;10528;52.124;5.196;2023-04-03T00:16:03;4.60;99.90
20735;DHT22;10528;52.124;5.196;2023-04-03T00:18:30;4.60;99.90
20735;DHT22;10528;52.124;5.196;2023-04-03T00:20:58;4.50;99.90
20735;DHT22;10528;52.124;5.196;2023-04-03T00:23:25;4.60;99.90
20735;DHT22;10528;52.124;5.196;2023-04-03T00:25:52;4.60;99.90
20735;DHT22;10528;52.124;5.196;2023-04-03T00:28:19;4.50;99.90
20735;DHT22;10528;52.124;5.196;2023-04-03T00:30:49;4.60;99.90
20735;DHT22;10528;52.124;5.196;2023-04-03T00:33:16;4.60;99.90
20735;DHT22;10528;52.124;5.196;2023-04-03T00:35:43;4.50;99.90
20735;DHT22;10528;52.124;5.196;2023-04-03T00:38:10;4.40;99.90
20735;DHT22;10528;52.124;5.196;2023-04-03T00:40:41;4.50;99.90
20735;DHT22;10528;52.124;5.196;2023-04-03T00:43:16;4.40;99.90
20735;DHT22;10528;52.124;5.196;2023-04-03T00:45:52;4.40;99.90
20735;DHT22;10528;52.124;5.196;2023-04-03T00:51:03;4.40;99.90
20735;DHT22;10528;52.124;5.196;2023-04-03T00:56:35;4.30;99.90
20735;DHT22;10528;52.124;5.196;2023-04-03T00:59:13;4.30;99.90
20735;DHT22;10528;52.124;5.196;2023-04-03T01:01:44;4.30;99.90
20735;DHT22;10528;52.124;5.196;2023-04-03T01:04:36;4.20;99.90
20735;DHT22;10528;52.124;5.196;2023-04-03T01:07:09;4.30;99.90
20735;DHT22;10528;52.124;5.196;2023-04-03T01:09:39;4.20;99.90
20735;DHT22;10528;52.124;5.196;2023-04-03T01:12:28;4.20;99.90
20735;DHT22;10528;52.124;5.196;2023-04-03T01:15:09;4.20;99.90
20735;DHT22;10528;52.124;5.196;2023-04-03T01:17:42;4.20;99.90
20735;DHT22;10528;52.124;5.196;2023-04-03T01:23:47;4.00;99.90
20735;DHT22;10528;52.124;5.196;2023-04-03T01:26:22;4.00;99.90
20735;DHT22;10528;52.124;5.196;2023-04-03T01:28:50;3.90;99.90
20735;DHT22;10528;52.124;5.196;2023-04-03T01:31:25;3.90;99.90
20735;DHT22;10528;52.124;5.196;2023-04-03T01:33:56;3.90;99.90
20735;DHT22;10528;52.124;5.196;2023-04-03T01:36:29;3.90;99.90
20735;DHT22;10528;52.124;5.196;2023-04-03T01:38:58;3.80;99.90
20735;DHT22;10528;52.124;5.196;2023-04-03T01:41:27;3.80;99.90
20735;DHT22;10528;52.124;5.196;2023-04-03T01:44:01;3.80;99.90
20735;DHT22;10528;52.124;5.196;2023-04-03T01:46:28;3.80;99.90
20735;DHT22;10528;52.124;5.196;2023-04-03T01:48:55;3.80;99.90
20735;DHT22;10528;52.124;5.196;2023-04-03T01:51:22;3.70;99.90
20735;DHT22;10528;52.124;5.196;2023-04-03T01:53:49;3.60;99.90
20735;DHT22;10528;52.124;5.196;2023-04-03T01:56:16;3.60;99.90
20735;DHT22;10528;52.124;5.196;2023-04-03T01:58:44;3.60;99.90
20735;DHT22;10528;52.124;5.196;2023-04-03T02:01:11;3.40;99.90
20735;DHT22;10528;52.124;5.196;2023-04-03T02:03:38;3.50;99.90
20735;DHT22;10528;52.124;5.196;2023-04-03T02:06:05;3.50;99.90
20735;DHT22;10528;52.124;5.196;2023-04-03T02:08:32;3.50;99.90
20735;DHT22;10528;52.124;5.196;2023-04-03T02:10:59;3.50;99.90
20735;DHT22;10528;52.124;5.196;2023-04-03T02:13:26;3.50;99.90
20735;DHT22;10528;52.124;5.196;2023-04-03T02:15:53;3.40;99.90
20735;DHT22;10528;52.124;5.196;2023-04-03T02:18:20;3.40;99.90
20735;DHT22;10528;52.124;5.196;2023-04-03T02:20:47;3.40;99.90
20735;DHT22;10528;52.124;5.196;2023-04-03T02:23:14;3.40;99.90
20735;DHT22;10528;52.124;5.196;2023-04-03T02:25:41;3.30;99.90
20735;DHT22;10528;52.124;5.196;2023-04-03T02:28:08;3.30;99.90
20735;DHT22;10528;52.124;5.196;2023-04-03T02:30:35;3.30;99.90
20735;DHT22;10528;52.124;5.196;2023-04-03T02:33:03;3.30;99.90
20735;DHT22;10528;52.124;5.196;2023-04-03T02:35:30;3.20;99.90
20735;DHT22;10528;52.124;5.196;2023-04-03T02:37:58;3.30;99.90
20735;DHT22;10528;52.124;5.196;2023-04-03T02:40:25;3.30;99.90
20735;DHT22;10528;52.124;5.196;2023-04-03T02:42:52;3.30;99.90
20735;DHT22;10528;52.124;5.196;2023-04-03T02:45:19;3.30;99.90
20735;DHT22;10528;52.124;5.196;2023-04-03T02:47:46;3.30;99.90
20735;DHT22;10528;52.124;5.196;2023-04-03T02:50:13;3.20;99.90
20735;DHT22;10528;52.124;5.196;2023-04-03T02:52:41;3.20;99.90
20735;DHT22;10528;52.124;5.196;2023-04-03T02:55:08;3.10;99.90
20735;DHT22;10528;52.124;5.196;2023-04-03T02:57:35;3.20;99.90
20735;DHT22;10528;52.124;5.196;2023-04-03T03:00:02;3.20;99.90
20735;DHT22;10528;52.124;5.196;2023-04-03T03:02:29;3.20;99.90
20735;DHT22;10528;52.124;5.196;2023-04-03T03:04:56;3.20;99.90
20735;DHT22;10528;52.124;5.196;2023-04-03T03:07:23;3.20;99.90
20735;DHT22;10528;52.124;5.196;2023-04-03T03:09:51;3.10;99.90
20735;DHT22;10528;52.124;5.196;2023-04-03T03:12:18;3.20;99.90
20735;DHT22;10528;52.124;5.196;2023-04-03T03:14:49;3.10;99.90
20735;DHT22;10528;52.124;5.196;2023-04-03T03:17:16;3.00;99.90
20735;DHT22;10528;52.124;5.196;2023-04-03T03:19:44;3.10;99.90
20735;DHT22;10528;52.124;5.196;2023-04-03T03:22:12;3.00;99.90
20735;DHT22;10528;52.124;5.196;2023-04-03T03:24:39;3.00;99.90
20735;DHT22;10528;52.124;5.196;2023-04-03T03:27:05;3.00;99.90
20735;DHT22;10528;52.124;5.196;2023-04-03T03:29:32;3.00;99.90
20735;DHT22;10528;52.124;5.196;2023-04-03T03:31:59;3.00;99.90
20735;DHT22;10528;52.124;5.196;2023-04-03T03:34:26;3.00;99.90
20735;DHT22;10528;52.124;5.196;2023-04-03T03:36:53;2.90;99.90
20735;DHT22;10528;52.124;5.196;2023-04-03T03:39:20;2.90;99.90
20735;DHT22;10528;52.124;5.196;2023-04-03T03:41:47;3.00;99.90
20735;DHT22;10528;52.124;5.196;2023-04-03T03:44:16;2.90;99.90
20735;DHT22;10528;52.124;5.196;2023-04-03T03:46:43;2.90;99.90
20735;DHT22;10528;52.124;5.196;2023-04-03T03:49:10;2.80;99.90
20735;DHT22;10528;52.124;5.196;2023-04-03T03:51:38;2.80;99.90
20735;DHT22;10528;52.124;5.196;2023-04-03T03:54:07;2.80;99.90
20735;DHT22;10528;52.124;5.196;2023-04-03T03:56:34;2.90;99.90
20735;DHT22;10528;52.124;5.196;2023-04-03T03:59:02;2.90;99.90
20735;DHT22;10528;52.124;5.196;2023-04-03T04:01:30;2.80;99.90
20735;DHT22;10528;52.124;5.196;2023-04-03T04:03:58;2.80;99.90
20735;DHT22;10528;52.124;5.196;2023-04-03T04:06:29;2.80;99.90
20735;DHT22;10528;52.124;5.196;2023-04-03T04:09:01;2.70;99.90
20735;DHT22;10528;52.124;5.196;2023-04-03T04:11:29;2.70;99.90
20735;DHT22;10528;52.124;5.196;2023-04-03T04:13:56;2.80;99.90
20735;DHT22;10528;52.124;5.196;2023-04-03T04:16:26;2.70;99.90
20735;DHT22;10528;52.124;5.196;2023-04-03T04:18:55;2.60;99.90
20735;DHT22;10528;52.124;5.196;2023-04-03T04:21:23;2.70;99.90
20735;DHT22;10528;52.124;5.196;2023-04-03T04:23:52;2.70;99.90
20735;DHT22;10528;52.124;5.196;2023-04-03T04:26:19;2.70;99.90
20735;DHT22;10528;52.124;5.196;2023-04-03T04:28:47;2.60;99.90
20735;DHT22;10528;52.124;5.196;2023-04-03T04:31:14;2.60;99.90
20735;DHT22;10528;52.124;5.196;2023-04-03T04:33:41;2.60;99.90
20735;DHT22;10528;52.124;5.196;2023-04-03T04:36:10;2.60;99.90
20735;DHT22;10528;52.124;5.196;2023-04-03T04:38:38;2.60;99.90
20735;DHT22;10528;52.124;5.196;2023-04-03T04:41:05;2.40;99.90
20735;DHT22;10528;52.124;5.196;2023-04-03T04:43:32;2.50;99.90
20735;DHT22;10528;52.124;5.196;2023-04-03T04:46:10;2.50;99.90
20735;DHT22;10528;52.124;5.196;2023-04-03T04:48:46;2.50;99.90
20735;DHT22;10528;52.124;5.196;2023-04-03T04:51:14;2.50;99.90
20735;DHT22;10528;52.124;5.196;2023-04-03T04:53:41;2.60;99.90
20735;DHT22;10528;52.124;5.196;2023-04-03T04:56:11;2.60;99.90
20735;DHT22;10528;52.124;5.196;2023-04-03T04:58:39;2.50;99.90
20735;DHT22;10528;52.124;5.196;2023-04-03T05:01:09;2.50;99.90
20735;DHT22;10528;52.124;5.196;2023-04-03T05:03:45;2.50;99.90
20735;DHT22;10528;52.124;5.196;2023-04-03T05:06:14;2.50;99.90
20735;DHT22;10528;52.124;5.196;2023-04-03T05:08:41;2.50;99.90
20735;DHT22;10528;52.124;5.196;2023-04-03T05:11:08;2.50;99.90
20735;DHT22;10528;52.124;5.196;2023-04-03T05:13:35;2.40;99.90
20735;DHT22;10528;52.124;5.196;2023-04-03T05:16:02;2.50;99.90
20735;DHT22;10528;52.124;5.196;2023-04-03T05:18:30;2.40;99.90
20735;DHT22;10528;52.124;5.196;2023-04-03T05:20:59;2.50;99.90
20735;DHT22;10528;52.124;5.196;2023-04-03T05:23:26;2.40;99.90
20735;DHT22;10528;52.124;5.196;2023-04-03T05:25:54;2.50;99.90
20735;DHT22;10528;52.124;5.196;2023-04-03T05:28:22;2.40;99.90
20735;DHT22;10528;52.124;5.196;2023-04-03T05:30:58;2.50;99.90
20735;DHT22;10528;52.124;5.196;2023-04-03T05:33:31;2.40;99.90
20735;DHT22;10528;52.124;5.196;2023-04-03T05:36:03;2.50;99.90
20735;DHT22;10528;52.124;5.196;2023-04-03T05:38:35;2.50;99.90
20735;DHT22;10528;52.124;5.196;2023-04-03T05:41:02;2.60;99.90
20735;DHT22;10528;52.124;5.196;2023-04-03T05:43:29;2.50;99.90
20735;DHT22;10528;52.124;5.196;2023-04-03T05:45:56;2.60;99.90
20735;DHT22;10528;52.124;5.196;2023-04-03T05:48:26;2.60;99.90
20735;DHT22;10528;52.124;5.196;2023-04-03T05:50:53;2.60;99.90
20735;DHT22;10528;52.124;5.196;2023-04-03T05:53:27;2.60;99.90
20735;DHT22;10528;52.124;5.196;2023-04-03T05:55:59;2.70;99.90
20735;DHT22;10528;52.124;5.196;2023-04-03T05:58:28;2.60;99.90
20735;DHT22;10528;52.124;5.196;2023-04-03T06:00:55;2.60;99.90
20735;DHT22;10528;52.124;5.196;2023-04-03T06:03:23;2.70;99.90
20735;DHT22;10528;52.124;5.196;2023-04-03T06:05:50;2.70;99.90
20735;DHT22;10528;52.124;5.196;2023-04-03T06:08:17;2.70;99.90
20735;DHT22;10528;52.124;5.196;2023-04-03T06:10:45;2.70;99.90
20735;DHT22;10528;52.124;5.196;2023-04-03T06:13:12;2.80;99.90
20735;DHT22;10528;52.124;5.196;2023-04-03T06:15:39;2.80;99.90
20735;DHT22;10528;52.124;5.196;2023-04-03T06:18:08;2.90;99.90
20735;DHT22;10528;52.124;5.196;2023-04-03T06:20:35;3.00;99.90
20735;DHT22;10528;52.124;5.196;2023-04-03T06:23:02;3.10;99.90
20735;DHT22;10528;52.124;5.196;2023-04-03T06:25:29;3.50;99.90
20735;DHT22;10528;52.124;5.196;2023-04-03T06:27:58;3.90;99.90
20735;DHT22;10528;52.124;5.196;2023-04-03T06:30:25;4.20;99.90
20735;DHT22;10528;52.124;5.196;2023-04-03T06:32:52;4.60;99.90
20735;DHT22;10528;52.124;5.196;2023-04-03T06:35:19;4.70;99.90
20735;DHT22;10528;52.124;5.196;2023-04-03T06:37:46;4.80;99.90
20735;DHT22;10528;52.124;5.196;2023-04-03T06:40:22;4.80;99.90
20735;DHT22;10528;52.124;5.196;2023-04-03T06:42:50;5.10;99.90
20735;DHT22;10528;52.124;5.196;2023-04-03T06:45:18;4.70;99.90
20735;DHT22;10528;52.124;5.196;2023-04-03T06:47:46;4.30;99.90
20735;DHT22;10528;52.124;5.196;2023-04-03T06:50:13;4.50;99.90
20735;DHT22;10528;52.124;5.196;2023-04-03T06:52:42;4.70;99.90
20735;DHT22;10528;52.124;5.196;2023-04-03T06:55:09;4.90;99.90
20735;DHT22;10528;52.124;5.196;2023-04-03T06:57:37;5.00;99.90
20735;DHT22;10528;52.124;5.196;2023-04-03T07:00:06;4.70;99.90
20735;DHT22;10528;52.124;5.196;2023-04-03T07:02:33;4.80;99.90
20735;DHT22;10528;52.124;5.196;2023-04-03T07:05:00;4.80;99.90
20735;DHT22;10528;52.124;5.196;2023-04-03T07:07:27;4.80;99.90
20735;DHT22;10528;52.124;5.196;2023-04-03T07:09:54;4.80;99.90
20735;DHT22;10528;52.124;5.196;2023-04-03T07:12:21;4.80;99.90
20735;DHT22;10528;52.124;5.196;2023-04-03T07:14:48;4.80;99.90
20735;DHT22;10528;52.124;5.196;2023-04-03T07:17:15;5.10;99.90
20735;DHT22;10528;52.124;5.196;2023-04-03T07:19:42;5.20;99.90
20735;DHT22;10528;52.124;5.196;2023-04-03T07:22:09;5.10;99.90
20735;DHT22;10528;52.124;5.196;2023-04-03T07:24:37;5.10;99.90
20735;DHT22;10528;52.124;5.196;2023-04-03T07:27:04;5.20;99.90
20735;DHT22;10528;52.124;5.196;2023-04-03T07:29:31;5.10;99.90
20735;DHT22;10528;52.124;5.196;2023-04-03T07:31:58;5.20;99.90
20735;DHT22;10528;52.124;5.196;2023-04-03T07:34:25;5.30;99.90
20735;DHT22;10528;52.124;5.196;2023-04-03T07:36:53;5.20;99.90
20735;DHT22;10528;52.124;5.196;2023-04-03T07:39:20;5.40;99.90
20735;DHT22;10528;52.124;5.196;2023-04-03T07:41:47;5.40;99.90
20735;DHT22;10528;52.124;5.196;2023-04-03T07:44:14;5.40;99.90
20735;DHT22;10528;52.124;5.196;2023-04-03T07:46:41;5.40;99.90
20735;DHT22;10528;52.124;5.196;2023-04-03T07:49:08;5.60;99.90
20735;DHT22;10528;52.124;5.196;2023-04-03T07:51:36;5.70;99.90
20735;DHT22;10528;52.124;5.196;2023-04-03T07:54:03;5.70;99.90
20735;DHT22;10528;52.124;5.196;2023-04-03T07:56:30;5.70;99.90
20735;DHT22;10528;52.124;5.196;2023-04-03T07:58:58;5.80;99.90
20735;DHT22;10528;52.124;5.196;2023-04-03T08:01:25;5.70;99.90
20735;DHT22;10528;52.124;5.196;2023-04-03T08:03:52;5.80;99.90
20735;DHT22;10528;52.124;5.196;2023-04-03T08:06:19;5.90;99.90
20735;DHT22;10528;52.124;5.196;2023-04-03T08:09:03;5.70;99.90
20735;DHT22;10528;52.124;5.196;2023-04-03T08:11:31;5.90;99.90
20735;DHT22;10528;52.124;5.196;2023-04-03T08:13:58;5.70;99.90
20735;DHT22;10528;52.124;5.196;2023-04-03T08:16:24;5.80;99.90
20735;DHT22;10528;52.124;5.196;2023-04-03T08:18:55;6.00;99.90
20735;DHT22;10528;52.124;5.196;2023-04-03T08:21:22;6.10;99.90
20735;DHT22;10528;52.124;5.196;2023-04-03T08:23:49;6.10;99.90
20735;DHT22;10528;52.124;5.196;2023-04-03T08:26:19;6.10;99.90
20735;DHT22;10528;52.124;5.196;2023-04-03T08:28:48;6.30;99.90
20735;DHT22;10528;52.124;5.196;2023-04-03T08:31:18;6.50;99.90
20735;DHT22;10528;52.124;5.196;2023-04-03T08:33:46;6.50;99.90
20735;DHT22;10528;52.124;5.196;2023-04-03T08:36:22;6.60;99.90
20735;DHT22;10528;52.124;5.196;2023-04-03T08:38:51;6.50;99.90
20735;DHT22;10528;52.124;5.196;2023-04-03T08:41:39;6.50;99.90
20735;DHT22;10528;52.124;5.196;2023-04-03T08:44:32;6.40;99.90
20735;DHT22;10528;52.124;5.196;2023-04-03T08:47:23;6.60;99.90
20735;DHT22;10528;52.124;5.196;2023-04-03T08:50:00;6.70;99.90
20735;DHT22;10528;52.124;5.196;2023-04-03T08:52:36;6.80;99.90
20735;DHT22;10528;52.124;5.196;2023-04-03T08:55:22;6.80;99.90
20735;DHT22;10528;52.124;5.196;2023-04-03T08:58:02;7.00;99.90
20735;DHT22;10528;52.124;5.196;2023-04-03T09:03:49;6.90;99.90
20735;DHT22;10528;52.124;5.196;2023-04-03T09:06:26;7.00;99.90
20735;DHT22;10528;52.124;5.196;2023-04-03T09:09:14;7.10;99.90
20735;DHT22;10528;52.124;5.196;2023-04-03T09:12:15;7.10;99.90
20735;DHT22;10528;52.124;5.196;2023-04-03T09:17:42;7.40;99.90
20735;DHT22;10528;52.124;5.196;2023-04-03T09:22:58;7.60;99.90
20735;DHT22;10528;52.124;5.196;2023-04-03T09:25:27;7.50;99.90
20735;DHT22;10528;52.124;5.196;2023-04-03T09:28:00;7.60;99.90
20735;DHT22;10528;52.124;5.196;2023-04-03T09:30:36;7.70;99.90
20735;DHT22;10528;52.124;5.196;2023-04-03T09:33:05;7.80;99.90
20735;DHT22;10528;52.124;5.196;2023-04-03T09:35:36;8.00;97.50
20735;DHT22;10528;52.124;5.196;2023-04-03T09:38:15;8.10;96.30
20735;DHT22;10528;52.124;5.196;2023-04-03T09:41:15;8.30;99.10
20735;DHT22;10528;52.124;5.196;2023-04-03T09:43:52;8.00;95.00
20735;DHT22;10528;52.124;5.196;2023-04-03T09:46:33;8.20;95.20
20735;DHT22;10528;52.124;5.196;2023-04-03T09:49:02;8.40;95.10
20735;DHT22;10528;52.124;5.196;2023-04-03T09:51:36;8.30;91.90
20735;DHT22;10528;52.124;5.196;2023-04-03T09:54:29;8.30;91.80
20735;DHT22;10528;52.124;5.196;2023-04-03T09:57:11;8.30;89.40
20735;DHT22;10528;52.124;5.196;2023-04-03T10:00:06;8.40;86.60
20735;DHT22;10528;52.124;5.196;2023-04-03T10:02:51;8.60;89.00
20735;DHT22;10528;52.124;5.196;2023-04-03T10:05:36;8.70;87.10
20735;DHT22;10528;52.124;5.196;2023-04-03T10:10:44;8.90;90.00
20735;DHT22;10528;52.124;5.196;2023-04-03T10:13:15;8.80;88.40
20735;DHT22;10528;52.124;5.196;2023-04-03T10:16:12;8.90;89.70
20735;DHT22;10528;52.124;5.196;2023-04-03T10:19:02;9.20;90.00
20735;DHT22;10528;52.124;5.196;2023-04-03T10:21:57;8.90;87.00
20735;DHT22;10528;52.124;5.196;2023-04-03T10:24:47;9.30;87.50
20735;DHT22;10528;52.124;5.196;2023-04-03T10:39:19;9.80;81.30
20735;DHT22;10528;52.124;5.196;2023-04-03T10:42:15;9.20;77.90
20735;DHT22;10528;52.124;5.196;2023-04-03T10:56:21;9.70;80.70
20735;DHT22;10528;52.124;5.196;2023-04-03T10:58:57;9.80;77.80
20735;DHT22;10528;52.124;5.196;2023-04-03T11:01:31;9.80;77.10
20735;DHT22;10528;52.124;5.196;2023-04-03T11:04:04;10.10;78.10
20735;DHT22;10528;52.124;5.196;2023-04-03T11:06:37;10.50;75.70
20735;DHT22;10528;52.124;5.196;2023-04-03T11:09:28;10.40;77.30
20735;DHT22;10528;52.124;5.196;2023-04-03T11:12:46;10.10;73.20
20735;DHT22;10528;52.124;5.196;2023-04-03T11:15:16;10.50;79.90
20735;DHT22;10528;52.124;5.196;2023-04-03T11:17:58;10.40;73.30
20735;DHT22;10528;52.124;5.196;2023-04-03T11:20:38;10.20;73.80
20735;DHT22;10528;52.124;5.196;2023-04-03T11:23:40;10.20;75.50
20735;DHT22;10528;52.124;5.196;2023-04-03T11:26:18;10.40;76.90
20735;DHT22;10528;52.124;5.196;2023-04-03T11:28:53;10.30;78.20
20735;DHT22;10528;52.124;5.196;2023-04-03T11:31:29;10.40;79.10
20735;DHT22;10528;52.124;5.196;2023-04-03T11:37:01;10.20;75.80
20735;DHT22;10528;52.124;5.196;2023-04-03T11:39:38;10.90;82.30
20735;DHT22;10528;52.124;5.196;2023-04-03T11:45:24;10.30;78.80
20735;DHT22;10528;52.124;5.196;2023-04-03T11:50:55;10.70;81.40
20735;DHT22;10528;52.124;5.196;2023-04-03T11:53:36;10.50;80.10
20735;DHT22;10528;52.124;5.196;2023-04-03T12:01:48;10.60;81.10
20735;DHT22;10528;52.124;5.196;2023-04-03T12:04:18;10.60;82.60
20735;DHT22;10528;52.124;5.196;2023-04-03T12:12:40;10.10;79.90
20735;DHT22;10528;52.124;5.196;2023-04-03T12:15:26;10.40;81.70
20735;DHT22;10528;52.124;5.196;2023-04-03T12:21:18;10.80;81.30
20735;DHT22;10528;52.124;5.196;2023-04-03T12:27:15;10.20;78.70
20735;DHT22;10528;52.124;5.196;2023-04-03T12:44:19;10.40;80.90
20735;DHT22;10528;52.124;5.196;2023-04-03T12:46:53;10.20;80.30
20735;DHT22;10528;52.124;5.196;2023-04-03T12:51:56;10.00;79.20
20735;DHT22;10528;52.124;5.196;2023-04-03T12:54:45;10.00;79.20
20735;DHT22;10528;52.124;5.196;2023-04-03T12:57:18;10.10;78.20
20735;DHT22;10528;52.124;5.196;2023-04-03T12:59:47;10.00;80.30
20735;DHT22;10528;52.124;5.196;2023-04-03T13:05:04;10.20;81.20
20735;DHT22;10528;52.124;5.196;2023-04-03T13:07:38;10.40;81.50
20735;DHT22;10528;52.124;5.196;2023-04-03T13:12:44;10.40;81.70
20735;DHT22;10528;52.124;5.196;2023-04-03T13:15:24;10.20;82.70
20735;DHT22;10528;52.124;5.196;2023-04-03T13:17:56;10.40;81.30
20735;DHT22;10528;52.124;5.196;2023-04-03T13:20:32;10.60;83.30
20735;DHT22;10528;52.124;5.196;2023-04-03T13:23:06;10.30;82.20
20735;DHT22;10528;52.124;5.196;2023-04-03T13:25:42;10.40;84.00
20735;DHT22;10528;52.124;5.196;2023-04-03T13:28:14;10.60;84.00
20735;DHT22;10528;52.124;5.196;2023-04-03T13:36:41;10.30;82.10
20735;DHT22;10528;52.124;5.196;2023-04-03T13:39:25;10.40;81.50
20735;DHT22;10528;52.124;5.196;2023-04-03T13:42:16;10.40;84.60
20735;DHT22;10528;52.124;5.196;2023-04-03T13:44:48;10.40;83.70
20735;DHT22;10528;52.124;5.196;2023-04-03T13:47:23;10.70;83.20
20735;DHT22;10528;52.124;5.196;2023-04-03T13:50:23;10.20;80.80
20735;DHT22;10528;52.124;5.196;2023-04-03T13:53:08;10.10;82.00
20735;DHT22;10528;52.124;5.196;2023-04-03T13:58:26;10.10;84.90
20735;DHT22;10528;52.124;5.196;2023-04-03T14:03:42;10.30;83.30
20735;DHT22;10528;52.124;5.196;2023-04-03T14:06:16;10.30;83.40
20735;DHT22;10528;52.124;5.196;2023-04-03T14:08:44;10.40;88.10
20735;DHT22;10528;52.124;5.196;2023-04-03T14:11:21;10.20;82.80
20735;DHT22;10528;52.124;5.196;2023-04-03T14:13:50;10.00;82.80
20735;DHT22;10528;52.124;5.196;2023-04-03T14:16:22;10.00;83.90
20735;DHT22;10528;52.124;5.196;2023-04-03T14:18:50;10.20;85.00
20735;DHT22;10528;52.124;5.196;2023-04-03T14:21:19;10.00;84.40
20735;DHT22;10528;52.124;5.196;2023-04-03T14:23:48;10.20;88.40
20735;DHT22;10528;52.124;5.196;2023-04-03T14:26:18;10.30;85.90
20735;DHT22;10528;52.124;5.196;2023-04-03T14:28:50;10.00;84.90
20735;DHT22;10528;52.124;5.196;2023-04-03T14:31:19;10.00;83.20
20735;DHT22;10528;52.124;5.196;2023-04-03T14:33:47;10.00;86.90
20735;DHT22;10528;52.124;5.196;2023-04-03T14:36:20;10.20;86.00
20735;DHT22;10528;52.124;5.196;2023-04-03T14:38:50;10.10;82.50
20735;DHT22;10528;52.124;5.196;2023-04-03T14:41:21;10.20;84.50
20735;DHT22;10528;52.124;5.196;2023-04-03T14:43:50;10.10;84.40
20735;DHT22;10528;52.124;5.196;2023-04-03T14:46:32;10.10;84.00
20735;DHT22;10528;52.124;5.196;2023-04-03T14:49:24;10.30;85.10
20735;DHT22;10528;52.124;5.196;2023-04-03T14:51:55;10.20;85.70
20735;DHT22;10528;52.124;5.196;2023-04-03T14:54:24;10.20;85.60
20735;DHT22;10528;52.124;5.196;2023-04-03T14:57:13;10.20;87.40
20735;DHT22;10528;52.124;5.196;2023-04-03T14:59:43;10.20;88.70
20735;DHT22;10528;52.124;5.196;2023-04-03T15:02:30;10.20;89.00
20735;DHT22;10528;52.124;5.196;2023-04-03T15:05:04;10.30;88.20
20735;DHT22;10528;52.124;5.196;2023-04-03T15:07:38;10.30;89.80
20735;DHT22;10528;52.124;5.196;2023-04-03T15:10:22;10.10;88.10
20735;DHT22;10528;52.124;5.196;2023-04-03T15:12:50;10.10;89.10
20735;DHT22;10528;52.124;5.196;2023-04-03T15:15:20;10.10;90.30
20735;DHT22;10528;52.124;5.196;2023-04-03T15:17:53;10.20;89.30
20735;DHT22;10528;52.124;5.196;2023-04-03T15:20:24;10.30;89.00
20735;DHT22;10528;52.124;5.196;2023-04-03T15:22:53;10.30;88.50
20735;DHT22;10528;52.124;5.196;2023-04-03T15:25:23;10.30;88.90
20735;DHT22;10528;52.124;5.196;2023-04-03T15:27:53;10.20;89.40
20735;DHT22;10528;52.124;5.196;2023-04-03T15:30:21;10.00;90.00
20735;DHT22;10528;52.124;5.196;2023-04-03T15:32:48;10.10;90.40
20735;DHT22;10528;52.124;5.196;2023-04-03T15:35:16;10.10;91.40
20735;DHT22;10528;52.124;5.196;2023-04-03T15:37:44;10.30;91.80
20735;DHT22;10528;52.124;5.196;2023-04-03T15:40:11;10.10;90.20
20735;DHT22;10528;52.124;5.196;2023-04-03T15:42:39;10.10;91.20
20735;DHT22;10528;52.124;5.196;2023-04-03T15:45:07;10.30;91.50
20735;DHT22;10528;52.124;5.196;2023-04-03T15:47:35;10.20;91.20
20735;DHT22;10528;52.124;5.196;2023-04-03T15:50:02;10.00;91.30
20735;DHT22;10528;52.124;5.196;2023-04-03T15:52:32;10.00;90.70
20735;DHT22;10528;52.124;5.196;2023-04-03T15:54:59;9.90;91.30
20735;DHT22;10528;52.124;5.196;2023-04-03T15:57:26;10.00;91.00
20735;DHT22;10528;52.124;5.196;2023-04-03T15:59:53;10.00;91.10
20735;DHT22;10528;52.124;5.196;2023-04-03T16:02:20;10.10;92.00
20735;DHT22;10528;52.124;5.196;2023-04-03T16:04:48;10.00;91.50
20735;DHT22;10528;52.124;5.196;2023-04-03T16:07:15;10.00;91.20
20735;DHT22;10528;52.124;5.196;2023-04-03T16:09:42;9.80;92.40
20735;DHT22;10528;52.124;5.196;2023-04-03T16:12:09;9.70;92.70
20735;DHT22;10528;52.124;5.196;2023-04-03T16:14:36;9.80;93.50
20735;DHT22;10528;52.124;5.196;2023-04-03T16:17:03;9.80;93.90
20735;DHT22;10528;52.124;5.196;2023-04-03T16:19:30;9.90;94.90
20735;DHT22;10528;52.124;5.196;2023-04-03T16:21:57;9.90;94.50
20735;DHT22;10528;52.124;5.196;2023-04-03T16:24:24;9.70;93.90
20735;DHT22;10528;52.124;5.196;2023-04-03T16:26:51;9.80;94.50
20735;DHT22;10528;52.124;5.196;2023-04-03T16:29:19;9.70;95.00
20735;DHT22;10528;52.124;5.196;2023-04-03T16:31:46;9.60;95.00
20735;DHT22;10528;52.124;5.196;2023-04-03T16:34:13;9.50;95.00
20735;DHT22;10528;52.124;5.196;2023-04-03T16:36:41;9.60;96.20
20735;DHT22;10528;52.124;5.196;2023-04-03T16:39:08;9.70;96.70
20735;DHT22;10528;52.124;5.196;2023-04-03T16:41:36;9.70;97.00
20735;DHT22;10528;52.124;5.196;2023-04-03T16:44:03;9.80;97.60
20735;DHT22;10528;52.124;5.196;2023-04-03T16:46:30;9.60;97.60
20735;DHT22;10528;52.124;5.196;2023-04-03T16:48:57;9.60;97.90
20735;DHT22;10528;52.124;5.196;2023-04-03T16:51:24;9.40;97.60
20735;DHT22;10528;52.124;5.196;2023-04-03T16:53:51;9.40;97.90
20735;DHT22;10528;52.124;5.196;2023-04-03T16:56:18;9.40;98.40
20735;DHT22;10528;52.124;5.196;2023-04-03T16:58:45;9.40;98.40
20735;DHT22;10528;52.124;5.196;2023-04-03T17:01:17;9.40;98.60
20735;DHT22;10528;52.124;5.196;2023-04-03T17:03:45;9.30;99.00
20735;DHT22;10528;52.124;5.196;2023-04-03T17:06:16;9.30;99.30
20735;DHT22;10528;52.124;5.196;2023-04-03T17:08:46;9.20;99.40
20735;DHT22;10528;52.124;5.196;2023-04-03T17:11:27;9.20;99.50
20735;DHT22;10528;52.124;5.196;2023-04-03T17:13:55;9.10;98.90
20735;DHT22;10528;52.124;5.196;2023-04-03T17:16:23;9.10;98.90
20735;DHT22;10528;52.124;5.196;2023-04-03T17:18:52;9.00;98.90
20735;DHT22;10528;52.124;5.196;2023-04-03T17:21:20;9.00;98.90
20735;DHT22;10528;52.124;5.196;2023-04-03T17:23:55;9.00;99.10
20735;DHT22;10528;52.124;5.196;2023-04-03T17:26:25;8.90;99.00
20735;DHT22;10528;52.124;5.196;2023-04-03T17:28:53;8.90;99.00
20735;DHT22;10528;52.124;5.196;2023-04-03T17:31:20;8.90;99.20
20735;DHT22;10528;52.124;5.196;2023-04-03T17:33:47;8.80;99.30
20735;DHT22;10528;52.124;5.196;2023-04-03T17:36:14;8.80;99.70
20735;DHT22;10528;52.124;5.196;2023-04-03T17:38:41;8.70;99.70
20735;DHT22;10528;52.124;5.196;2023-04-03T17:41:08;8.70;99.40
20735;DHT22;10528;52.124;5.196;2023-04-03T17:43:35;8.60;99.30
20735;DHT22;10528;52.124;5.196;2023-04-03T17:46:05;8.60;99.70
20735;DHT22;10528;52.124;5.196;2023-04-03T17:48:36;8.60;99.90
20735;DHT22;10528;52.124;5.196;2023-04-03T17:51:10;8.60;99.90
20735;DHT22;10528;52.124;5.196;2023-04-03T17:53:39;8.50;99.90